sensor_id;sensor_type;location;lat;lon;timestamp;temperature;humidity
7654;DHT22;3869;48.406;10.774;2023-09-08T00:01:40;15.40;99.90
7654;DHT22;3869;48.406;10.774;2023-09-08T00:04:08;15.30;99.90
7654;DHT22;3869;48.406;10.774;2023-09-08T00:06:38;15.30;99.90
7654;DHT22;3869;48.406;10.774;2023-09-08T00:09:06;15.30;99.90
7654;DHT22;3869;48.406;10.774;2023-09-08T00:11:34;15.20;99.90
7654;DHT22;3869;48.406;10.774;2023-09-08T00:14:02;15.10;99.90
7654;DHT22;3869;48.406;10.774;2023-09-08T00:16:30;15.10;99.90
7654;DHT22;3869;48.406;10.774;2023-09-08T00:18:58;15.00;99.90
7654;DHT22;3869;48.406;10.774;2023-09-08T00:21:27;15.00;99.90
7654;DHT22;3869;48.406;10.774;2023-09-08T00:23:56;15.10;99.90
7654;DHT22;3869;48.406;10.774;2023-09-08T00:26:24;15.10;99.90
7654;DHT22;3869;48.406;10.774;2023-09-08T00:28:52;15.10;99.90
7654;DHT22;3869;48.406;10.774;2023-09-08T00:31:20;15.00;99.90
7654;DHT22;3869;48.406;10.774;2023-09-08T00:33:48;15.00;99.90
7654;DHT22;3869;48.406;10.774;2023-09-08T00:36:16;15.00;99.90
7654;DHT22;3869;48.406;10.774;2023-09-08T00:38:46;15.00;99.90
7654;DHT22;3869;48.406;10.774;2023-09-08T00:41:15;15.00;99.90
7654;DHT22;3869;48.406;10.774;2023-09-08T00:43:43;15.00;99.90
7654;DHT22;3869;48.406;10.774;2023-09-08T00:46:11;14.90;99.90
7654;DHT22;3869;48.406;10.774;2023-09-08T00:48:40;14.90;99.90
7654;DHT22;3869;48.406;10.774;2023-09-08T00:51:09;14.80;99.90
7654;DHT22;3869;48.406;10.774;2023-09-08T00:53:37;14.80;99.90
7654;DHT22;3869;48.406;10.774;2023-09-08T00:56:05;14.80;99.90
7654;DHT22;3869;48.406;10.774;2023-09-08T00:58:36;14.80;99.90
7654;DHT22;3869;48.406;10.774;2023-09-08T01:01:04;14.80;99.90
7654;DHT22;3869;48.406;10.774;2023-09-08T01:03:33;14.90;99.90
7654;DHT22;3869;48.406;10.774;2023-09-08T01:06:01;14.80;99.90
7654;DHT22;3869;48.406;10.774;2023-09-08T01:08:30;14.80;99.90
7654;DHT22;3869;48.406;10.774;2023-09-08T01:10:59;14.70;99.90
7654;DHT22;3869;48.406;10.774;2023-09-08T01:13:27;14.60;99.90
7654;DHT22;3869;48.406;10.774;2023-09-08T01:15:57;14.60;99.90
7654;DHT22;3869;48.406;10.774;2023-09-08T01:18:25;14.60;99.90
7654;DHT22;3869;48.406;10.774;2023-09-08T01:21:13;14.50;99.90
7654;DHT22;3869;48.406;10.774;2023-09-08T01:24:03;14.50;99.90
7654;DHT22;3869;48.406;10.774;2023-09-08T01:26:41;14.50;99.90
7654;DHT22;3869;48.406;10.774;2023-09-08T01:29:10;14.60;99.90
7654;DHT22;3869;48.406;10.774;2023-09-08T01:31:39;14.50;99.90
7654;DHT22;3869;48.406;10.774;2023-09-08T01:34:08;14.50;99.90
7654;DHT22;3869;48.406;10.774;2023-09-08T01:36:36;14.50;99.90
7654;DHT22;3869;48.406;10.774;2023-09-08T01:39:04;14.50;99.90
7654;DHT22;3869;48.406;10.774;2023-09-08T01:41:32;14.50;99.90
7654;DHT22;3869;48.406;10.774;2023-09-08T01:44:02;14.50;99.90
7654;DHT22;3869;48.406;10.774;2023-09-08T01:46:35;14.50;99.90
7654;DHT22;3869;48.406;10.774;2023-09-08T01:49:03;14.30;99.90
7654;DHT22;3869;48.406;10.774;2023-09-08T01:51:31;14.30;99.90
7654;DHT22;3869;48.406;10.774;2023-09-08T01:53:59;14.30;99.90
7654;DHT22;3869;48.406;10.774;2023-09-08T01:56:27;14.40;99.90
7654;DHT22;3869;48.406;10.774;2023-09-08T01:58:55;14.40;99.90
7654;DHT22;3869;48.406;10.774;2023-09-08T02:01:25;14.40;99.90
7654;DHT22;3869;48.406;10.774;2023-09-08T02:03:53;14.40;99.90
7654;DHT22;3869;48.406;10.774;2023-09-08T02:06:21;14.30;99.90
7654;DHT22;3869;48.406;10.774;2023-09-08T02:08:49;14.30;99.90
7654;DHT22;3869;48.406;10.774;2023-09-08T02:11:17;14.30;99.90
7654;DHT22;3869;48.406;10.774;2023-09-08T02:13:45;14.20;99.90
7654;DHT22;3869;48.406;10.774;2023-09-08T02:16:13;14.20;99.90
7654;DHT22;3869;48.406;10.774;2023-09-08T02:18:43;14.20;99.90
7654;DHT22;3869;48.406;10.774;2023-09-08T02:21:12;14.20;99.90
7654;DHT22;3869;48.406;10.774;2023-09-08T02:23:40;14.10;99.90
7654;DHT22;3869;48.406;10.774;2023-09-08T02:26:08;14.10;99.90
7654;DHT22;3869;48.406;10.774;2023-09-08T02:28:36;14.00;99.90
7654;DHT22;3869;48.406;10.774;2023-09-08T02:31:04;14.00;99.90
7654;DHT22;3869;48.406;10.774;2023-09-08T02:33:32;14.10;99.90
7654;DHT22;3869;48.406;10.774;2023-09-08T02:36:06;14.10;99.90
7654;DHT22;3869;48.406;10.774;2023-09-08T02:38:34;14.10;99.90
7654;DHT22;3869;48.406;10.774;2023-09-08T02:41:02;14.00;99.90
7654;DHT22;3869;48.406;10.774;2023-09-08T02:43:30;14.00;99.90
7654;DHT22;3869;48.406;10.774;2023-09-08T02:45:58;14.00;99.90
7654;DHT22;3869;48.406;10.774;2023-09-08T02:48:27;14.00;99.90
7654;DHT22;3869;48.406;10.774;2023-09-08T02:50:55;14.00;99.90
7654;DHT22;3869;48.406;10.774;2023-09-08T02:53:24;14.00;99.90
7654;DHT22;3869;48.406;10.774;2023-09-08T02:55:55;14.00;99.90
7654;DHT22;3869;48.406;10.774;2023-09-08T02:58:24;14.00;99.90
7654;DHT22;3869;48.406;10.774;2023-09-08T03:00:52;13.90;99.90
7654;DHT22;3869;48.406;10.774;2023-09-08T03:03:20;13.80;99.90
7654;DHT22;3869;48.406;10.774;2023-09-08T03:05:53;13.80;99.90
7654;DHT22;3869;48.406;10.774;2023-09-08T03:08:24;13.80;99.90
7654;DHT22;3869;48.406;10.774;2023-09-08T03:10:55;13.80;99.90
7654;DHT22;3869;48.406;10.774;2023-09-08T03:13:24;13.90;99.90
7654;DHT22;3869;48.406;10.774;2023-09-08T03:15:53;13.80;99.90
7654;DHT22;3869;48.406;10.774;2023-09-08T03:18:21;13.90;99.90
7654;DHT22;3869;48.406;10.774;2023-09-08T03:20:50;13.80;99.90
7654;DHT22;3869;48.406;10.774;2023-09-08T03:23:18;13.90;99.90
7654;DHT22;3869;48.406;10.774;2023-09-08T03:25:48;13.90;99.90
7654;DHT22;3869;48.406;10.774;2023-09-08T03:28:16;14.00;99.90
7654;DHT22;3869;48.406;10.774;2023-09-08T03:30:44;13.90;99.90
7654;DHT22;3869;48.406;10.774;2023-09-08T03:33:12;13.90;99.90
7654;DHT22;3869;48.406;10.774;2023-09-08T03:35:41;13.80;99.90
7654;DHT22;3869;48.406;10.774;2023-09-08T03:38:09;13.70;99.90
7654;DHT22;3869;48.406;10.774;2023-09-08T03:40:37;13.60;99.90
7654;DHT22;3869;48.406;10.774;2023-09-08T03:43:06;13.50;99.90
7654;DHT22;3869;48.406;10.774;2023-09-08T03:45:34;13.50;99.90
7654;DHT22;3869;48.406;10.774;2023-09-08T03:48:03;13.60;99.90
7654;DHT22;3869;48.406;10.774;2023-09-08T03:50:31;13.60;99.90
7654;DHT22;3869;48.406;10.774;2023-09-08T03:52:59;13.70;99.90
7654;DHT22;3869;48.406;10.774;2023-09-08T03:55:27;13.70;99.90
7654;DHT22;3869;48.406;10.774;2023-09-08T03:57:55;13.70;99.90
7654;DHT22;3869;48.406;10.774;2023-09-08T04:00:25;13.60;99.90
7654;DHT22;3869;48.406;10.774;2023-09-08T04:02:53;13.50;99.90
7654;DHT22;3869;48.406;10.774;2023-09-08T04:05:21;13.40;99.90
7654;DHT22;3869;48.406;10.774;2023-09-08T04:07:49;13.30;99.90
7654;DHT22;3869;48.406;10.774;2023-09-08T04:10:18;13.40;99.90
7654;DHT22;3869;48.406;10.774;2023-09-08T04:12:46;13.40;99.90
7654;DHT22;3869;48.406;10.774;2023-09-08T04:15:14;13.50;99.90
7654;DHT22;3869;48.406;10.774;2023-09-08T04:17:43;13.50;99.90
7654;DHT22;3869;48.406;10.774;2023-09-08T04:20:11;13.50;99.90
7654;DHT22;3869;48.406;10.774;2023-09-08T04:22:41;13.50;99.90
7654;DHT22;3869;48.406;10.774;2023-09-08T04:25:10;13.50;99.90
7654;DHT22;3869;48.406;10.774;2023-09-08T04:27:38;13.50;99.90
7654;DHT22;3869;48.406;10.774;2023-09-08T04:30:08;13.50;99.90
7654;DHT22;3869;48.406;10.774;2023-09-08T04:32:36;13.50;99.90
7654;DHT22;3869;48.406;10.774;2023-09-08T04:35:07;13.40;99.90
7654;DHT22;3869;48.406;10.774;2023-09-08T04:37:35;13.40;99.90
7654;DHT22;3869;48.406;10.774;2023-09-08T04:40:05;13.50;99.90
7654;DHT22;3869;48.406;10.774;2023-09-08T04:42:33;13.50;99.90
7654;DHT22;3869;48.406;10.774;2023-09-08T04:45:02;13.50;99.90
7654;DHT22;3869;48.406;10.774;2023-09-08T04:47:30;13.50;99.90
7654;DHT22;3869;48.406;10.774;2023-09-08T04:49:58;13.40;99.90
7654;DHT22;3869;48.406;10.774;2023-09-08T04:52:27;13.30;99.90
7654;DHT22;3869;48.406;10.774;2023-09-08T04:54:55;13.20;99.90
7654;DHT22;3869;48.406;10.774;2023-09-08T04:57:23;13.20;99.90
7654;DHT22;3869;48.406;10.774;2023-09-08T04:59:51;13.20;99.90
7654;DHT22;3869;48.406;10.774;2023-09-08T05:02:19;13.20;99.90
7654;DHT22;3869;48.406;10.774;2023-09-08T05:04:48;13.30;99.90
7654;DHT22;3869;48.406;10.774;2023-09-08T05:07:16;13.30;99.90
7654;DHT22;3869;48.406;10.774;2023-09-08T05:09:47;13.30;99.90
7654;DHT22;3869;48.406;10.774;2023-09-08T05:12:15;13.30;99.90
7654;DHT22;3869;48.406;10.774;2023-09-08T05:14:43;13.20;99.90
7654;DHT22;3869;48.406;10.774;2023-09-08T05:17:11;13.10;99.90
7654;DHT22;3869;48.406;10.774;2023-09-08T05:19:39;13.10;99.90
7654;DHT22;3869;48.406;10.774;2023-09-08T05:22:07;13.10;99.90
7654;DHT22;3869;48.406;10.774;2023-09-08T05:24:35;13.10;99.90
7654;DHT22;3869;48.406;10.774;2023-09-08T05:27:05;13.10;99.90
7654;DHT22;3869;48.406;10.774;2023-09-08T05:29:33;13.10;99.90
7654;DHT22;3869;48.406;10.774;2023-09-08T05:32:01;13.20;99.90
7654;DHT22;3869;48.406;10.774;2023-09-08T05:34:29;13.30;99.90
7654;DHT22;3869;48.406;10.774;2023-09-08T05:36:57;13.30;99.90
7654;DHT22;3869;48.406;10.774;2023-09-08T05:39:25;13.40;99.90
7654;DHT22;3869;48.406;10.774;2023-09-08T05:41:53;13.30;99.90
7654;DHT22;3869;48.406;10.774;2023-09-08T05:44:22;13.30;99.90
7654;DHT22;3869;48.406;10.774;2023-09-08T05:46:52;13.30;99.90
7654;DHT22;3869;48.406;10.774;2023-09-08T05:49:20;13.30;99.90
7654;DHT22;3869;48.406;10.774;2023-09-08T05:51:48;13.40;99.90
7654;DHT22;3869;48.406;10.774;2023-09-08T05:54:16;13.50;99.90
7654;DHT22;3869;48.406;10.774;2023-09-08T05:56:44;13.60;99.90
7654;DHT22;3869;48.406;10.774;2023-09-08T05:59:12;13.70;99.90
7654;DHT22;3869;48.406;10.774;2023-09-08T06:01:41;13.80;99.90
7654;DHT22;3869;48.406;10.774;2023-09-08T06:04:10;13.90;99.90
7654;DHT22;3869;48.406;10.774;2023-09-08T06:06:38;13.90;99.90
7654;DHT22;3869;48.406;10.774;2023-09-08T06:09:06;14.00;99.90
7654;DHT22;3869;48.406;10.774;2023-09-08T06:11:35;14.00;99.90
7654;DHT22;3869;48.406;10.774;2023-09-08T06:14:03;14.10;99.90
7654;DHT22;3869;48.406;10.774;2023-09-08T06:16:31;14.10;99.90
7654;DHT22;3869;48.406;10.774;2023-09-08T06:19:01;14.30;99.90
7654;DHT22;3869;48.406;10.774;2023-09-08T06:21:30;14.40;99.90
7654;DHT22;3869;48.406;10.774;2023-09-08T06:23:58;14.50;99.90
7654;DHT22;3869;48.406;10.774;2023-09-08T06:26:26;14.60;99.90
7654;DHT22;3869;48.406;10.774;2023-09-08T06:28:54;14.70;99.90
7654;DHT22;3869;48.406;10.774;2023-09-08T06:31:22;14.80;99.90
7654;DHT22;3869;48.406;10.774;2023-09-08T06:33:50;14.80;99.90
7654;DHT22;3869;48.406;10.774;2023-09-08T06:36:20;14.90;99.90
7654;DHT22;3869;48.406;10.774;2023-09-08T06:38:48;15.00;99.90
7654;DHT22;3869;48.406;10.774;2023-09-08T06:41:16;15.10;99.90
7654;DHT22;3869;48.406;10.774;2023-09-08T06:43:44;15.20;99.90
7654;DHT22;3869;48.406;10.774;2023-09-08T06:46:12;15.20;99.90
7654;DHT22;3869;48.406;10.774;2023-09-08T06:48:41;15.30;99.90
7654;DHT22;3869;48.406;10.774;2023-09-08T06:51:09;15.40;99.90
7654;DHT22;3869;48.406;10.774;2023-09-08T06:53:38;15.50;99.90
7654;DHT22;3869;48.406;10.774;2023-09-08T06:56:06;15.50;99.90
7654;DHT22;3869;48.406;10.774;2023-09-08T06:58:34;15.50;99.90
7654;DHT22;3869;48.406;10.774;2023-09-08T07:01:03;15.60;99.90
7654;DHT22;3869;48.406;10.774;2023-09-08T07:03:31;15.60;99.90
7654;DHT22;3869;48.406;10.774;2023-09-08T07:06:04;15.70;99.90
7654;DHT22;3869;48.406;10.774;2023-09-08T07:08:32;15.80;99.90
7654;DHT22;3869;48.406;10.774;2023-09-08T07:11:02;15.80;99.90
7654;DHT22;3869;48.406;10.774;2023-09-08T07:13:30;15.90;99.90
7654;DHT22;3869;48.406;10.774;2023-09-08T07:15:58;15.90;99.90
7654;DHT22;3869;48.406;10.774;2023-09-08T07:18:26;16.00;99.90
7654;DHT22;3869;48.406;10.774;2023-09-08T07:20:55;16.10;99.90
7654;DHT22;3869;48.406;10.774;2023-09-08T07:23:23;16.10;99.90
7654;DHT22;3869;48.406;10.774;2023-09-08T07:25:51;16.20;99.90
7654;DHT22;3869;48.406;10.774;2023-09-08T07:28:20;16.30;99.90
7654;DHT22;3869;48.406;10.774;2023-09-08T07:30:50;16.40;99.90
7654;DHT22;3869;48.406;10.774;2023-09-08T07:33:18;16.50;99.90
7654;DHT22;3869;48.406;10.774;2023-09-08T07:35:47;16.50;99.90
7654;DHT22;3869;48.406;10.774;2023-09-08T07:38:15;16.60;99.90
7654;DHT22;3869;48.406;10.774;2023-09-08T07:40:43;16.70;99.90
7654;DHT22;3869;48.406;10.774;2023-09-08T07:43:11;16.80;99.90
7654;DHT22;3869;48.406;10.774;2023-09-08T07:45:40;16.90;99.90
7654;DHT22;3869;48.406;10.774;2023-09-08T07:48:08;16.90;99.90
7654;DHT22;3869;48.406;10.774;2023-09-08T07:50:37;17.10;99.90
7654;DHT22;3869;48.406;10.774;2023-09-08T07:53:05;17.10;99.90
7654;DHT22;3869;48.406;10.774;2023-09-08T07:55:33;17.20;99.90
7654;DHT22;3869;48.406;10.774;2023-09-08T07:58:01;17.30;99.90
7654;DHT22;3869;48.406;10.774;2023-09-08T08:00:30;17.40;99.90
7654;DHT22;3869;48.406;10.774;2023-09-08T08:03:00;17.50;99.90
7654;DHT22;3869;48.406;10.774;2023-09-08T08:05:28;17.60;99.90
7654;DHT22;3869;48.406;10.774;2023-09-08T08:07:56;17.60;99.90
7654;DHT22;3869;48.406;10.774;2023-09-08T08:10:24;17.70;99.90
7654;DHT22;3869;48.406;10.774;2023-09-08T08:12:52;17.80;99.90
7654;DHT22;3869;48.406;10.774;2023-09-08T08:15:22;17.80;99.90
7654;DHT22;3869;48.406;10.774;2023-09-08T08:17:50;17.90;99.90
7654;DHT22;3869;48.406;10.774;2023-09-08T08:20:20;18.00;99.90
7654;DHT22;3869;48.406;10.774;2023-09-08T08:22:48;18.10;99.90
7654;DHT22;3869;48.406;10.774;2023-09-08T08:25:16;18.20;99.90
7654;DHT22;3869;48.406;10.774;2023-09-08T08:27:44;18.30;99.90
7654;DHT22;3869;48.406;10.774;2023-09-08T08:30:13;18.30;99.90
7654;DHT22;3869;48.406;10.774;2023-09-08T08:32:41;18.30;99.90
7654;DHT22;3869;48.406;10.774;2023-09-08T08:35:09;18.40;99.90
7654;DHT22;3869;48.406;10.774;2023-09-08T08:37:40;18.40;99.90
7654;DHT22;3869;48.406;10.774;2023-09-08T08:40:09;18.50;99.90
7654;DHT22;3869;48.406;10.774;2023-09-08T08:42:39;18.60;99.90
7654;DHT22;3869;48.406;10.774;2023-09-08T08:45:08;18.70;99.90
7654;DHT22;3869;48.406;10.774;2023-09-08T08:47:37;18.70;99.90
7654;DHT22;3869;48.406;10.774;2023-09-08T08:50:08;18.80;99.90
7654;DHT22;3869;48.406;10.774;2023-09-08T08:52:39;18.80;99.90
7654;DHT22;3869;48.406;10.774;2023-09-08T08:55:08;18.90;99.90
7654;DHT22;3869;48.406;10.774;2023-09-08T08:57:37;19.00;99.90
7654;DHT22;3869;48.406;10.774;2023-09-08T09:00:08;19.10;99.90
7654;DHT22;3869;48.406;10.774;2023-09-08T09:02:39;19.10;99.90
7654;DHT22;3869;48.406;10.774;2023-09-08T09:05:09;19.20;99.90
7654;DHT22;3869;48.406;10.774;2023-09-08T09:07:41;19.30;99.90
7654;DHT22;3869;48.406;10.774;2023-09-08T09:10:09;19.40;99.90
7654;DHT22;3869;48.406;10.774;2023-09-08T09:12:38;19.50;99.90
7654;DHT22;3869;48.406;10.774;2023-09-08T09:15:07;19.50;99.90
7654;DHT22;3869;48.406;10.774;2023-09-08T09:17:35;19.60;99.90
7654;DHT22;3869;48.406;10.774;2023-09-08T09:20:13;19.60;99.90
7654;DHT22;3869;48.406;10.774;2023-09-08T09:22:43;19.70;99.90
7654;DHT22;3869;48.406;10.774;2023-09-08T09:25:21;19.80;99.90
7654;DHT22;3869;48.406;10.774;2023-09-08T09:27:51;19.80;99.90
7654;DHT22;3869;48.406;10.774;2023-09-08T09:30:20;19.90;99.90
7654;DHT22;3869;48.406;10.774;2023-09-08T09:32:49;19.90;99.90
7654;DHT22;3869;48.406;10.774;2023-09-08T09:35:40;20.00;99.90
7654;DHT22;3869;48.406;10.774;2023-09-08T09:38:10;20.10;99.90
7654;DHT22;3869;48.406;10.774;2023-09-08T09:40:39;20.20;99.90
7654;DHT22;3869;48.406;10.774;2023-09-08T09:43:08;20.30;99.90
7654;DHT22;3869;48.406;10.774;2023-09-08T09:45:37;20.40;99.90
7654;DHT22;3869;48.406;10.774;2023-09-08T09:48:06;20.40;99.90
7654;DHT22;3869;48.406;10.774;2023-09-08T09:50:37;20.50;99.90
7654;DHT22;3869;48.406;10.774;2023-09-08T09:53:10;20.50;99.90
7654;DHT22;3869;48.406;10.774;2023-09-08T09:55:40;20.60;99.90
7654;DHT22;3869;48.406;10.774;2023-09-08T09:58:09;20.60;99.90
7654;DHT22;3869;48.406;10.774;2023-09-08T10:00:38;20.60;99.90
7654;DHT22;3869;48.406;10.774;2023-09-08T10:03:08;20.70;99.90
7654;DHT22;3869;48.406;10.774;2023-09-08T10:05:38;20.80;99.90
7654;DHT22;3869;48.406;10.774;2023-09-08T10:08:06;20.90;99.90
7654;DHT22;3869;48.406;10.774;2023-09-08T10:10:36;20.90;99.90
7654;DHT22;3869;48.406;10.774;2023-09-08T10:13:06;21.00;99.90
7654;DHT22;3869;48.406;10.774;2023-09-08T10:15:35;21.10;99.90
7654;DHT22;3869;48.406;10.774;2023-09-08T10:18:05;21.10;99.90
7654;DHT22;3869;48.406;10.774;2023-09-08T10:20:34;21.10;99.90
7654;DHT22;3869;48.406;10.774;2023-09-08T10:23:07;21.20;99.90
7654;DHT22;3869;48.406;10.774;2023-09-08T10:25:42;21.30;99.90
7654;DHT22;3869;48.406;10.774;2023-09-08T10:28:13;21.40;99.90
7654;DHT22;3869;48.406;10.774;2023-09-08T10:30:41;21.40;99.90
7654;DHT22;3869;48.406;10.774;2023-09-08T10:33:10;21.50;99.90
7654;DHT22;3869;48.406;10.774;2023-09-08T10:35:39;21.60;99.90
7654;DHT22;3869;48.406;10.774;2023-09-08T10:38:24;21.70;99.90
7654;DHT22;3869;48.406;10.774;2023-09-08T10:41:17;21.80;99.90
7654;DHT22;3869;48.406;10.774;2023-09-08T10:43:42;21.90;99.90
7654;DHT22;3869;48.406;10.774;2023-09-08T10:46:15;22.00;99.90
7654;DHT22;3869;48.406;10.774;2023-09-08T10:48:48;22.00;99.90
7654;DHT22;3869;48.406;10.774;2023-09-08T10:51:17;22.10;99.90
7654;DHT22;3869;48.406;10.774;2023-09-08T10:53:47;22.20;99.90
7654;DHT22;3869;48.406;10.774;2023-09-08T10:56:18;22.30;99.90
7654;DHT22;3869;48.406;10.774;2023-09-08T10:58:49;22.40;99.90
7654;DHT22;3869;48.406;10.774;2023-09-08T11:01:21;22.50;99.90
7654;DHT22;3869;48.406;10.774;2023-09-08T11:03:54;22.50;99.90
7654;DHT22;3869;48.406;10.774;2023-09-08T11:06:23;22.70;99.90
7654;DHT22;3869;48.406;10.774;2023-09-08T11:09:06;22.80;99.90
7654;DHT22;3869;48.406;10.774;2023-09-08T11:11:36;22.90;99.90
7654;DHT22;3869;48.406;10.774;2023-09-08T11:14:04;22.90;99.90
7654;DHT22;3869;48.406;10.774;2023-09-08T11:16:32;22.90;99.90
7654;DHT22;3869;48.406;10.774;2023-09-08T11:19:02;23.00;99.90
7654;DHT22;3869;48.406;10.774;2023-09-08T11:21:31;23.10;99.90
7654;DHT22;3869;48.406;10.774;2023-09-08T11:24:02;23.10;99.90
7654;DHT22;3869;48.406;10.774;2023-09-08T11:26:33;23.30;99.90
7654;DHT22;3869;48.406;10.774;2023-09-08T11:29:02;23.30;99.90
7654;DHT22;3869;48.406;10.774;2023-09-08T11:31:31;23.50;99.90
7654;DHT22;3869;48.406;10.774;2023-09-08T11:33:59;23.50;99.90
7654;DHT22;3869;48.406;10.774;2023-09-08T11:36:27;23.60;99.90
7654;DHT22;3869;48.406;10.774;2023-09-08T11:38:57;23.60;99.90
7654;DHT22;3869;48.406;10.774;2023-09-08T11:41:25;23.70;99.90
7654;DHT22;3869;48.406;10.774;2023-09-08T11:43:53;23.80;99.90
7654;DHT22;3869;48.406;10.774;2023-09-08T11:46:22;23.80;99.90
7654;DHT22;3869;48.406;10.774;2023-09-08T11:48:52;23.90;99.90
7654;DHT22;3869;48.406;10.774;2023-09-08T11:51:22;23.90;99.90
7654;DHT22;3869;48.406;10.774;2023-09-08T11:53:50;24.00;99.90
7654;DHT22;3869;48.406;10.774;2023-09-08T11:56:19;24.10;99.90
7654;DHT22;3869;48.406;10.774;2023-09-08T11:58:47;24.20;99.90
7654;DHT22;3869;48.406;10.774;2023-09-08T12:01:16;24.30;99.90
7654;DHT22;3869;48.406;10.774;2023-09-08T12:03:52;24.40;99.90
7654;DHT22;3869;48.406;10.774;2023-09-08T12:06:24;24.50;99.90
7654;DHT22;3869;48.406;10.774;2023-09-08T12:08:52;24.50;99.90
7654;DHT22;3869;48.406;10.774;2023-09-08T12:11:20;24.40;99.90
7654;DHT22;3869;48.406;10.774;2023-09-08T12:13:48;24.50;99.90
7654;DHT22;3869;48.406;10.774;2023-09-08T12:16:20;24.60;99.90
7654;DHT22;3869;48.406;10.774;2023-09-08T12:18:49;24.70;99.90
7654;DHT22;3869;48.406;10.774;2023-09-08T12:21:19;24.80;99.90
7654;DHT22;3869;48.406;10.774;2023-09-08T12:23:48;24.80;99.90
7654;DHT22;3869;48.406;10.774;2023-09-08T12:26:17;24.90;99.90
7654;DHT22;3869;48.406;10.774;2023-09-08T12:28:45;25.00;99.90
7654;DHT22;3869;48.406;10.774;2023-09-08T12:31:14;25.00;99.90
7654;DHT22;3869;48.406;10.774;2023-09-08T12:33:42;25.00;99.90
7654;DHT22;3869;48.406;10.774;2023-09-08T12:36:12;25.00;99.90
7654;DHT22;3869;48.406;10.774;2023-09-08T12:38:46;25.00;99.90
7654;DHT22;3869;48.406;10.774;2023-09-08T12:41:14;25.00;99.90
7654;DHT22;3869;48.406;10.774;2023-09-08T12:43:42;25.00;99.90
7654;DHT22;3869;48.406;10.774;2023-09-08T12:46:10;24.90;99.90
7654;DHT22;3869;48.406;10.774;2023-09-08T12:48:39;24.90;99.90
7654;DHT22;3869;48.406;10.774;2023-09-08T12:51:07;24.90;99.90
7654;DHT22;3869;48.406;10.774;2023-09-08T12:53:35;25.00;99.90
7654;DHT22;3869;48.406;10.774;2023-09-08T12:56:05;25.00;99.90
7654;DHT22;3869;48.406;10.774;2023-09-08T12:58:33;25.00;99.90
7654;DHT22;3869;48.406;10.774;2023-09-08T13:01:01;25.10;99.90
7654;DHT22;3869;48.406;10.774;2023-09-08T13:03:32;25.10;99.90
7654;DHT22;3869;48.406;10.774;2023-09-08T13:06:00;25.20;99.90
7654;DHT22;3869;48.406;10.774;2023-09-08T13:11:05;25.20;99.90
7654;DHT22;3869;48.406;10.774;2023-09-08T13:13:33;25.20;99.90
7654;DHT22;3869;48.406;10.774;2023-09-08T13:16:01;25.30;99.90
7654;DHT22;3869;48.406;10.774;2023-09-08T13:18:30;25.30;99.90
7654;DHT22;3869;48.406;10.774;2023-09-08T13:21:05;25.30;99.90
7654;DHT22;3869;48.406;10.774;2023-09-08T13:23:33;25.40;99.90
7654;DHT22;3869;48.406;10.774;2023-09-08T13:26:01;25.40;99.90
7654;DHT22;3869;48.406;10.774;2023-09-08T13:28:30;25.40;99.90
7654;DHT22;3869;48.406;10.774;2023-09-08T13:30:59;25.50;99.90
7654;DHT22;3869;48.406;10.774;2023-09-08T13:33:27;25.50;99.90
7654;DHT22;3869;48.406;10.774;2023-09-08T13:35:56;25.50;99.90
7654;DHT22;3869;48.406;10.774;2023-09-08T13:38:24;25.50;99.90
7654;DHT22;3869;48.406;10.774;2023-09-08T13:40:52;25.30;99.90
7654;DHT22;3869;48.406;10.774;2023-09-08T13:43:20;25.20;99.90
7654;DHT22;3869;48.406;10.774;2023-09-08T13:45:51;25.20;99.90
7654;DHT22;3869;48.406;10.774;2023-09-08T13:48:19;25.20;99.90
7654;DHT22;3869;48.406;10.774;2023-09-08T13:50:47;25.10;99.90
7654;DHT22;3869;48.406;10.774;2023-09-08T13:53:16;25.10;99.90
7654;DHT22;3869;48.406;10.774;2023-09-08T13:55:46;25.20;99.90
7654;DHT22;3869;48.406;10.774;2023-09-08T13:58:17;25.10;99.90
7654;DHT22;3869;48.406;10.774;2023-09-08T14:00:46;25.10;99.90
7654;DHT22;3869;48.406;10.774;2023-09-08T14:03:21;25.10;99.90
7654;DHT22;3869;48.406;10.774;2023-09-08T14:05:49;25.10;99.90
7654;DHT22;3869;48.406;10.774;2023-09-08T14:08:21;25.10;99.90
7654;DHT22;3869;48.406;10.774;2023-09-08T14:10:52;25.20;99.90
7654;DHT22;3869;48.406;10.774;2023-09-08T14:13:31;25.30;99.90
7654;DHT22;3869;48.406;10.774;2023-09-08T14:15:59;25.30;99.90
7654;DHT22;3869;48.406;10.774;2023-09-08T14:18:30;25.30;99.90
7654;DHT22;3869;48.406;10.774;2023-09-08T14:20:58;25.30;99.90
7654;DHT22;3869;48.406;10.774;2023-09-08T14:23:26;25.30;99.90
7654;DHT22;3869;48.406;10.774;2023-09-08T14:25:55;25.30;99.90
7654;DHT22;3869;48.406;10.774;2023-09-08T14:28:23;25.40;99.90
7654;DHT22;3869;48.406;10.774;2023-09-08T14:30:53;25.40;99.90
7654;DHT22;3869;48.406;10.774;2023-09-08T14:33:21;25.30;99.90
7654;DHT22;3869;48.406;10.774;2023-09-08T14:35:50;25.30;99.90
7654;DHT22;3869;48.406;10.774;2023-09-08T14:38:19;25.30;99.90
7654;DHT22;3869;48.406;10.774;2023-09-08T14:40:54;25.30;99.90
7654;DHT22;3869;48.406;10.774;2023-09-08T14:43:22;25.30;99.90
7654;DHT22;3869;48.406;10.774;2023-09-08T14:45:50;25.40;99.90
7654;DHT22;3869;48.406;10.774;2023-09-08T14:48:19;25.40;99.90
7654;DHT22;3869;48.406;10.774;2023-09-08T14:50:48;25.40;99.90
7654;DHT22;3869;48.406;10.774;2023-09-08T14:53:18;25.40;99.90
7654;DHT22;3869;48.406;10.774;2023-09-08T14:55:46;25.30;99.90
7654;DHT22;3869;48.406;10.774;2023-09-08T14:58:15;25.40;99.90
7654;DHT22;3869;48.406;10.774;2023-09-08T15:00:44;25.40;99.90
7654;DHT22;3869;48.406;10.774;2023-09-08T15:03:13;25.40;99.90
7654;DHT22;3869;48.406;10.774;2023-09-08T15:05:41;25.40;99.90
7654;DHT22;3869;48.406;10.774;2023-09-08T15:08:09;25.40;99.90
7654;DHT22;3869;48.406;10.774;2023-09-08T15:10:40;25.40;99.90
7654;DHT22;3869;48.406;10.774;2023-09-08T15:13:08;25.40;99.90
7654;DHT22;3869;48.406;10.774;2023-09-08T15:15:36;25.40;99.90
7654;DHT22;3869;48.406;10.774;2023-09-08T15:18:05;25.40;99.90
7654;DHT22;3869;48.406;10.774;2023-09-08T15:20:33;25.40;99.90
7654;DHT22;3869;48.406;10.774;2023-09-08T15:23:01;25.40;99.90
7654;DHT22;3869;48.406;10.774;2023-09-08T15:25:33;25.40;99.90
7654;DHT22;3869;48.406;10.774;2023-09-08T15:28:03;25.30;99.90
7654;DHT22;3869;48.406;10.774;2023-09-08T15:30:31;25.30;99.90
7654;DHT22;3869;48.406;10.774;2023-09-08T15:33:02;25.20;99.90
7654;DHT22;3869;48.406;10.774;2023-09-08T15:35:31;25.20;99.90
7654;DHT22;3869;48.406;10.774;2023-09-08T15:37:59;25.20;99.90
7654;DHT22;3869;48.406;10.774;2023-09-08T15:40:27;25.10;99.90
7654;DHT22;3869;48.406;10.774;2023-09-08T15:42:55;25.10;99.90
7654;DHT22;3869;48.406;10.774;2023-09-08T15:45:25;25.10;99.90
7654;DHT22;3869;48.406;10.774;2023-09-08T15:47:53;25.00;99.90
7654;DHT22;3869;48.406;10.774;2023-09-08T15:50:21;25.00;99.90
7654;DHT22;3869;48.406;10.774;2023-09-08T15:52:49;25.00;99.90
7654;DHT22;3869;48.406;10.774;2023-09-08T15:55:17;25.00;99.90
7654;DHT22;3869;48.406;10.774;2023-09-08T15:57:45;25.00;99.90
7654;DHT22;3869;48.406;10.774;2023-09-08T16:00:13;24.90;99.90